sensor_id;sensor_type;location;lat;lon;timestamp;P1;durP1;ratioP1;P2;durP2;ratioP2
57463;SDS011;43309;44.418;26.122;2022-08-02T00:01:53;4.60;;;3.40;;
57463;SDS011;43309;44.418;26.122;2022-08-02T00:04:20;4.80;;;3.40;;
57463;SDS011;43309;44.418;26.122;2022-08-02T00:06:47;3.50;;;3.20;;
57463;SDS011;43309;44.418;26.122;2022-08-02T00:09:14;4.50;;;3.50;;
57463;SDS011;43309;44.418;26.122;2022-08-02T00:11:41;4.70;;;3.50;;
57463;SDS011;43309;44.418;26.122;2022-08-02T00:14:09;4.90;;;4.00;;
57463;SDS011;43309;44.418;26.122;2022-08-02T00:16:36;8.00;;;3.20;;
57463;SDS011;43309;44.418;26.122;2022-08-02T00:19:03;4.50;;;3.50;;
57463;SDS011;43309;44.418;26.122;2022-08-02T00:21:30;3.90;;;3.50;;
57463;SDS011;43309;44.418;26.122;2022-08-02T00:23:57;3.40;;;3.10;;
57463;SDS011;43309;44.418;26.122;2022-08-02T00:26:24;3.80;;;3.40;;
57463;SDS011;43309;44.418;26.122;2022-08-02T00:28:51;4.90;;;4.30;;
57463;SDS011;43309;44.418;26.122;2022-08-02T00:31:18;8.10;;;4.10;;
57463;SDS011;43309;44.418;26.122;2022-08-02T00:33:45;4.10;;;3.60;;
57463;SDS011;43309;44.418;26.122;2022-08-02T00:36:12;6.70;;;4.50;;
57463;SDS011;43309;44.418;26.122;2022-08-02T00:38:39;4.60;;;3.20;;
57463;SDS011;43309;44.418;26.122;2022-08-02T00:41:10;6.00;;;4.00;;
57463;SDS011;43309;44.418;26.122;2022-08-02T00:43:39;4.70;;;4.10;;
57463;SDS011;43309;44.418;26.122;2022-08-02T00:46:06;5.50;;;3.90;;
57463;SDS011;43309;44.418;26.122;2022-08-02T00:48:33;4.80;;;4.20;;
57463;SDS011;43309;44.418;26.122;2022-08-02T00:51:01;5.20;;;4.10;;
57463;SDS011;43309;44.418;26.122;2022-08-02T00:53:28;6.70;;;4.90;;
57463;SDS011;43309;44.418;26.122;2022-08-02T00:55:55;3.50;;;3.20;;
57463;SDS011;43309;44.418;26.122;2022-08-02T00:58:22;4.90;;;3.90;;
57463;SDS011;43309;44.418;26.122;2022-08-02T01:00:49;4.20;;;3.90;;
57463;SDS011;43309;44.418;26.122;2022-08-02T01:03:16;5.00;;;4.50;;
57463;SDS011;43309;44.418;26.122;2022-08-02T01:05:44;5.70;;;4.80;;
57463;SDS011;43309;44.418;26.122;2022-08-02T01:08:11;6.00;;;4.10;;
57463;SDS011;43309;44.418;26.122;2022-08-02T01:10:38;8.50;;;4.40;;
57463;SDS011;43309;44.418;26.122;2022-08-02T01:13:05;8.10;;;4.60;;
57463;SDS011;43309;44.418;26.122;2022-08-02T01:15:36;5.60;;;4.00;;
57463;SDS011;43309;44.418;26.122;2022-08-02T01:18:14;6.90;;;4.70;;
57463;SDS011;43309;44.418;26.122;2022-08-02T01:24:16;5.10;;;4.60;;
57463;SDS011;43309;44.418;26.122;2022-08-02T01:29:47;6.30;;;5.00;;
57463;SDS011;43309;44.418;26.122;2022-08-02T01:32:18;5.80;;;4.80;;
57463;SDS011;43309;44.418;26.122;2022-08-02T01:34:59;5.20;;;4.70;;
57463;SDS011;43309;44.418;26.122;2022-08-02T01:37:34;9.00;;;5.70;;
57463;SDS011;43309;44.418;26.122;2022-08-02T01:40:07;7.00;;;4.90;;
57463;SDS011;43309;44.418;26.122;2022-08-02T01:42:55;11.50;;;5.50;;
57463;SDS011;43309;44.418;26.122;2022-08-02T01:45:24;8.60;;;6.30;;
57463;SDS011;43309;44.418;26.122;2022-08-02T01:47:53;8.10;;;5.60;;
57463;SDS011;43309;44.418;26.122;2022-08-02T01:50:28;7.60;;;5.70;;
57463;SDS011;43309;44.418;26.122;2022-08-02T01:52:59;7.30;;;6.00;;
57463;SDS011;43309;44.418;26.122;2022-08-02T01:55:36;7.30;;;5.80;;
57463;SDS011;43309;44.418;26.122;2022-08-02T01:58:11;8.40;;;6.40;;
57463;SDS011;43309;44.418;26.122;2022-08-02T02:00:41;7.50;;;6.50;;
57463;SDS011;43309;44.418;26.122;2022-08-02T02:03:13;9.00;;;6.50;;
57463;SDS011;43309;44.418;26.122;2022-08-02T02:05:50;8.40;;;6.50;;
57463;SDS011;43309;44.418;26.122;2022-08-02T02:08:23;8.30;;;6.30;;
57463;SDS011;43309;44.418;26.122;2022-08-02T02:10:55;7.80;;;5.80;;
57463;SDS011;43309;44.418;26.122;2022-08-02T02:13:23;12.70;;;6.50;;
57463;SDS011;43309;44.418;26.122;2022-08-02T02:15:52;8.40;;;6.50;;
57463;SDS011;43309;44.418;26.122;2022-08-02T02:18:23;7.70;;;6.10;;
57463;SDS011;43309;44.418;26.122;2022-08-02T02:23:18;7.50;;;6.10;;
57463;SDS011;43309;44.418;26.122;2022-08-02T02:25:46;9.40;;;6.60;;
57463;SDS011;43309;44.418;26.122;2022-08-02T02:30:45;6.20;;;5.60;;
57463;SDS011;43309;44.418;26.122;2022-08-02T02:33:17;10.00;;;6.20;;
57463;SDS011;43309;44.418;26.122;2022-08-02T02:35:46;6.90;;;5.80;;
57463;SDS011;43309;44.418;26.122;2022-08-02T02:38:16;5.90;;;5.30;;
57463;SDS011;43309;44.418;26.122;2022-08-02T02:40:44;5.80;;;5.30;;
57463;SDS011;43309;44.418;26.122;2022-08-02T02:43:12;7.20;;;5.40;;
57463;SDS011;43309;44.418;26.122;2022-08-02T02:45:40;5.60;;;5.10;;
57463;SDS011;43309;44.418;26.122;2022-08-02T02:48:08;7.60;;;5.20;;
57463;SDS011;43309;44.418;26.122;2022-08-02T02:50:35;6.80;;;5.30;;
57463;SDS011;43309;44.418;26.122;2022-08-02T02:53:02;6.40;;;5.70;;
57463;SDS011;43309;44.418;26.122;2022-08-02T02:55:30;8.20;;;6.00;;
57463;SDS011;43309;44.418;26.122;2022-08-02T02:57:58;11.30;;;6.90;;
57463;SDS011;43309;44.418;26.122;2022-08-02T03:00:25;8.30;;;6.10;;
57463;SDS011;43309;44.418;26.122;2022-08-02T03:03:11;10.30;;;6.20;;
57463;SDS011;43309;44.418;26.122;2022-08-02T03:05:38;10.10;;;6.40;;
57463;SDS011;43309;44.418;26.122;2022-08-02T03:08:05;10.10;;;7.50;;
57463;SDS011;43309;44.418;26.122;2022-08-02T03:10:33;10.60;;;6.30;;
57463;SDS011;43309;44.418;26.122;2022-08-02T03:13:00;8.40;;;6.20;;
57463;SDS011;43309;44.418;26.122;2022-08-02T03:15:28;7.10;;;5.70;;
57463;SDS011;43309;44.418;26.122;2022-08-02T03:17:56;6.80;;;5.70;;
57463;SDS011;43309;44.418;26.122;2022-08-02T03:20:23;7.00;;;5.30;;
57463;SDS011;43309;44.418;26.122;2022-08-02T03:22:51;7.80;;;5.80;;
57463;SDS011;43309;44.418;26.122;2022-08-02T03:25:18;5.30;;;4.80;;
57463;SDS011;43309;44.418;26.122;2022-08-02T03:27:45;5.70;;;4.90;;
57463;SDS011;43309;44.418;26.122;2022-08-02T03:30:13;7.30;;;5.40;;
57463;SDS011;43309;44.418;26.122;2022-08-02T03:32:42;6.40;;;5.50;;
57463;SDS011;43309;44.418;26.122;2022-08-02T03:35:11;8.00;;;4.40;;
57463;SDS011;43309;44.418;26.122;2022-08-02T03:37:40;6.70;;;5.00;;
57463;SDS011;43309;44.418;26.122;2022-08-02T03:40:08;7.00;;;5.50;;
57463;SDS011;43309;44.418;26.122;2022-08-02T03:42:37;6.60;;;5.50;;
57463;SDS011;43309;44.418;26.122;2022-08-02T03:45:06;8.00;;;5.40;;
57463;SDS011;43309;44.418;26.122;2022-08-02T03:47:36;6.20;;;5.60;;
57463;SDS011;43309;44.418;26.122;2022-08-02T03:50:06;4.40;;;4.00;;
57463;SDS011;43309;44.418;26.122;2022-08-02T03:52:35;8.00;;;5.60;;
57463;SDS011;43309;44.418;26.122;2022-08-02T03:55:03;6.60;;;4.90;;
57463;SDS011;43309;44.418;26.122;2022-08-02T03:57:30;6.20;;;4.70;;
57463;SDS011;43309;44.418;26.122;2022-08-02T03:59:57;5.50;;;4.70;;
57463;SDS011;43309;44.418;26.122;2022-08-02T04:02:25;7.50;;;5.00;;
57463;SDS011;43309;44.418;26.122;2022-08-02T04:04:52;6.80;;;5.00;;
57463;SDS011;43309;44.418;26.122;2022-08-02T04:07:19;7.20;;;5.60;;
57463;SDS011;43309;44.418;26.122;2022-08-02T04:09:46;8.10;;;5.10;;
57463;SDS011;43309;44.418;26.122;2022-08-02T04:12:13;6.10;;;5.00;;
57463;SDS011;43309;44.418;26.122;2022-08-02T04:14:40;7.80;;;5.00;;
57463;SDS011;43309;44.418;26.122;2022-08-02T04:17:08;5.30;;;4.30;;
57463;SDS011;43309;44.418;26.122;2022-08-02T04:19:44;5.20;;;4.50;;
57463;SDS011;43309;44.418;26.122;2022-08-02T04:22:18;5.10;;;4.50;;
57463;SDS011;43309;44.418;26.122;2022-08-02T04:25:00;8.10;;;4.40;;
57463;SDS011;43309;44.418;26.122;2022-08-02T04:27:29;5.50;;;4.50;;
57463;SDS011;43309;44.418;26.122;2022-08-02T04:29:57;6.10;;;4.30;;
57463;SDS011;43309;44.418;26.122;2022-08-02T04:32:25;6.20;;;4.70;;
57463;SDS011;43309;44.418;26.122;2022-08-02T04:34:53;6.90;;;4.00;;
57463;SDS011;43309;44.418;26.122;2022-08-02T04:37:21;6.10;;;3.40;;
57463;SDS011;43309;44.418;26.122;2022-08-02T04:39:48;7.10;;;4.00;;
57463;SDS011;43309;44.418;26.122;2022-08-02T04:42:22;4.70;;;3.60;;
57463;SDS011;43309;44.418;26.122;2022-08-02T04:44:50;6.60;;;4.60;;
57463;SDS011;43309;44.418;26.122;2022-08-02T04:47:18;5.80;;;3.50;;
57463;SDS011;43309;44.418;26.122;2022-08-02T04:49:46;5.60;;;3.30;;
57463;SDS011;43309;44.418;26.122;2022-08-02T04:52:13;7.90;;;4.20;;
57463;SDS011;43309;44.418;26.122;2022-08-02T04:54:41;7.40;;;4.10;;
57463;SDS011;43309;44.418;26.122;2022-08-02T04:57:08;5.40;;;4.20;;
57463;SDS011;43309;44.418;26.122;2022-08-02T05:00:08;5.80;;;4.00;;
57463;SDS011;43309;44.418;26.122;2022-08-02T05:02:35;7.20;;;3.80;;
57463;SDS011;43309;44.418;26.122;2022-08-02T05:05:03;4.40;;;3.50;;
57463;SDS011;43309;44.418;26.122;2022-08-02T05:07:30;9.80;;;4.70;;
57463;SDS011;43309;44.418;26.122;2022-08-02T05:09:58;10.60;;;4.90;;
57463;SDS011;43309;44.418;26.122;2022-08-02T05:12:25;8.50;;;4.70;;
57463;SDS011;43309;44.418;26.122;2022-08-02T05:14:52;5.90;;;4.00;;
57463;SDS011;43309;44.418;26.122;2022-08-02T05:17:19;6.00;;;4.20;;
57463;SDS011;43309;44.418;26.122;2022-08-02T05:19:46;7.40;;;4.40;;
57463;SDS011;43309;44.418;26.122;2022-08-02T05:22:13;5.20;;;4.00;;
57463;SDS011;43309;44.418;26.122;2022-08-02T05:24:40;8.40;;;4.10;;
57463;SDS011;43309;44.418;26.122;2022-08-02T05:27:07;9.00;;;4.00;;
57463;SDS011;43309;44.418;26.122;2022-08-02T05:29:34;7.20;;;5.30;;
57463;SDS011;43309;44.418;26.122;2022-08-02T05:32:02;5.90;;;4.10;;
57463;SDS011;43309;44.418;26.122;2022-08-02T05:34:29;6.70;;;4.70;;
57463;SDS011;43309;44.418;26.122;2022-08-02T05:36:56;7.00;;;4.70;;
57463;SDS011;43309;44.418;26.122;2022-08-02T05:39:23;7.20;;;4.40;;
57463;SDS011;43309;44.418;26.122;2022-08-02T05:41:50;6.60;;;4.00;;
57463;SDS011;43309;44.418;26.122;2022-08-02T05:44:17;4.00;;;3.50;;
57463;SDS011;43309;44.418;26.122;2022-08-02T05:46:45;5.40;;;3.60;;
57463;SDS011;43309;44.418;26.122;2022-08-02T05:49:12;11.10;;;4.80;;
57463;SDS011;43309;44.418;26.122;2022-08-02T05:51:48;5.80;;;3.60;;
57463;SDS011;43309;44.418;26.122;2022-08-02T05:57:13;4.70;;;3.20;;
57463;SDS011;43309;44.418;26.122;2022-08-02T05:59:49;9.10;;;3.30;;
57463;SDS011;43309;44.418;26.122;2022-08-02T06:02:41;4.30;;;3.90;;
57463;SDS011;43309;44.418;26.122;2022-08-02T06:05:10;4.30;;;3.90;;
57463;SDS011;43309;44.418;26.122;2022-08-02T06:07:41;5.80;;;3.20;;
57463;SDS011;43309;44.418;26.122;2022-08-02T06:10:10;3.60;;;3.30;;
57463;SDS011;43309;44.418;26.122;2022-08-02T06:12:51;4.60;;;4.10;;
57463;SDS011;43309;44.418;26.122;2022-08-02T06:15:22;5.80;;;3.80;;
57463;SDS011;43309;44.418;26.122;2022-08-02T06:17:49;5.20;;;4.00;;
57463;SDS011;43309;44.418;26.122;2022-08-02T06:20:18;10.20;;;5.60;;
57463;SDS011;43309;44.418;26.122;2022-08-02T06:22:46;4.60;;;4.10;;
57463;SDS011;43309;44.418;26.122;2022-08-02T06:25:13;7.40;;;3.60;;
57463;SDS011;43309;44.418;26.122;2022-08-02T06:27:40;6.30;;;4.30;;
57463;SDS011;43309;44.418;26.122;2022-08-02T06:30:08;6.50;;;4.20;;
57463;SDS011;43309;44.418;26.122;2022-08-02T06:32:36;6.90;;;4.40;;
57463;SDS011;43309;44.418;26.122;2022-08-02T06:35:03;4.30;;;3.90;;
57463;SDS011;43309;44.418;26.122;2022-08-02T06:40:17;8.80;;;5.40;;
57463;SDS011;43309;44.418;26.122;2022-08-02T06:43:09;6.90;;;3.80;;
57463;SDS011;43309;44.418;26.122;2022-08-02T06:45:56;6.00;;;4.70;;
57463;SDS011;43309;44.418;26.122;2022-08-02T06:48:23;5.80;;;4.10;;
57463;SDS011;43309;44.418;26.122;2022-08-02T06:50:50;7.60;;;4.70;;
57463;SDS011;43309;44.418;26.122;2022-08-02T06:53:17;7.30;;;4.20;;
57463;SDS011;43309;44.418;26.122;2022-08-02T06:55:45;11.80;;;4.50;;
57463;SDS011;43309;44.418;26.122;2022-08-02T06:58:12;3.60;;;3.10;;
57463;SDS011;43309;44.418;26.122;2022-08-02T07:00:41;5.00;;;3.70;;
57463;SDS011;43309;44.418;26.122;2022-08-02T07:03:09;9.00;;;3.80;;
57463;SDS011;43309;44.418;26.122;2022-08-02T07:05:36;10.70;;;3.70;;
57463;SDS011;43309;44.418;26.122;2022-08-02T07:08:03;7.90;;;4.00;;
57463;SDS011;43309;44.418;26.122;2022-08-02T07:10:31;8.70;;;4.10;;
57463;SDS011;43309;44.418;26.122;2022-08-02T07:12:58;7.50;;;4.50;;
57463;SDS011;43309;44.418;26.122;2022-08-02T07:15:25;9.00;;;4.60;;
57463;SDS011;43309;44.418;26.122;2022-08-02T07:17:52;12.70;;;4.50;;
57463;SDS011;43309;44.418;26.122;2022-08-02T07:20:19;7.10;;;4.00;;
57463;SDS011;43309;44.418;26.122;2022-08-02T07:22:46;8.20;;;3.40;;
57463;SDS011;43309;44.418;26.122;2022-08-02T07:25:14;4.60;;;4.00;;
57463;SDS011;43309;44.418;26.122;2022-08-02T07:27:41;4.70;;;3.50;;
57463;SDS011;43309;44.418;26.122;2022-08-02T07:30:08;6.30;;;3.30;;
57463;SDS011;43309;44.418;26.122;2022-08-02T07:32:36;2.70;;;2.40;;
57463;SDS011;43309;44.418;26.122;2022-08-02T07:35:04;5.90;;;2.60;;
57463;SDS011;43309;44.418;26.122;2022-08-02T07:37:32;3.80;;;2.60;;
57463;SDS011;43309;44.418;26.122;2022-08-02T07:40:00;3.50;;;2.10;;
57463;SDS011;43309;44.418;26.122;2022-08-02T07:42:27;4.40;;;2.30;;
57463;SDS011;43309;44.418;26.122;2022-08-02T07:44:55;5.10;;;2.30;;
57463;SDS011;43309;44.418;26.122;2022-08-02T07:47:22;5.20;;;2.40;;
57463;SDS011;43309;44.418;26.122;2022-08-02T07:49:49;2.20;;;2.00;;
57463;SDS011;43309;44.418;26.122;2022-08-02T07:52:16;5.10;;;2.10;;
57463;SDS011;43309;44.418;26.122;2022-08-02T07:54:43;2.60;;;1.80;;
57463;SDS011;43309;44.418;26.122;2022-08-02T07:57:10;3.20;;;2.40;;
57463;SDS011;43309;44.418;26.122;2022-08-02T07:59:37;2.00;;;1.60;;
57463;SDS011;43309;44.418;26.122;2022-08-02T08:02:04;3.30;;;1.70;;
57463;SDS011;43309;44.418;26.122;2022-08-02T08:04:31;8.10;;;2.80;;
57463;SDS011;43309;44.418;26.122;2022-08-02T08:06:59;4.00;;;2.80;;
57463;SDS011;43309;44.418;26.122;2022-08-02T08:09:26;8.80;;;2.30;;
57463;SDS011;43309;44.418;26.122;2022-08-02T08:11:53;7.70;;;2.60;;
57463;SDS011;43309;44.418;26.122;2022-08-02T08:14:20;3.50;;;1.80;;
57463;SDS011;43309;44.418;26.122;2022-08-02T08:16:47;2.50;;;2.20;;
57463;SDS011;43309;44.418;26.122;2022-08-02T08:19:14;2.70;;;1.70;;
57463;SDS011;43309;44.418;26.122;2022-08-02T08:21:41;1.90;;;1.80;;
57463;SDS011;43309;44.418;26.122;2022-08-02T08:24:08;6.30;;;1.70;;
57463;SDS011;43309;44.418;26.122;2022-08-02T08:26:35;5.60;;;2.10;;
57463;SDS011;43309;44.418;26.122;2022-08-02T08:29:02;4.50;;;1.80;;
57463;SDS011;43309;44.418;26.122;2022-08-02T08:31:34;3.60;;;1.70;;
57463;SDS011;43309;44.418;26.122;2022-08-02T08:34:02;3.00;;;1.80;;
57463;SDS011;43309;44.418;26.122;2022-08-02T08:36:29;2.20;;;1.80;;
57463;SDS011;43309;44.418;26.122;2022-08-02T08:38:57;2.50;;;2.10;;
57463;SDS011;43309;44.418;26.122;2022-08-02T08:41:24;2.70;;;2.00;;
57463;SDS011;43309;44.418;26.122;2022-08-02T08:43:51;2.30;;;2.00;;
57463;SDS011;43309;44.418;26.122;2022-08-02T08:46:28;2.10;;;1.90;;
57463;SDS011;43309;44.418;26.122;2022-08-02T08:48:58;5.40;;;2.10;;
57463;SDS011;43309;44.418;26.122;2022-08-02T08:51:48;4.60;;;2.20;;
57463;SDS011;43309;44.418;26.122;2022-08-02T08:54:17;2.30;;;1.90;;
57463;SDS011;43309;44.418;26.122;2022-08-02T08:56:44;2.70;;;1.70;;
57463;SDS011;43309;44.418;26.122;2022-08-02T08:59:12;2.80;;;1.90;;
57463;SDS011;43309;44.418;26.122;2022-08-02T09:01:39;2.40;;;1.70;;
57463;SDS011;43309;44.418;26.122;2022-08-02T09:04:06;3.90;;;1.80;;
57463;SDS011;43309;44.418;26.122;2022-08-02T09:06:33;2.10;;;1.90;;
57463;SDS011;43309;44.418;26.122;2022-08-02T09:09:00;2.70;;;2.00;;
57463;SDS011;43309;44.418;26.122;2022-08-02T09:11:28;2.10;;;2.00;;
57463;SDS011;43309;44.418;26.122;2022-08-02T09:13:56;6.70;;;1.50;;
57463;SDS011;43309;44.418;26.122;2022-08-02T09:16:29;4.10;;;1.70;;
57463;SDS011;43309;44.418;26.122;2022-08-02T09:18:58;1.90;;;1.80;;
57463;SDS011;43309;44.418;26.122;2022-08-02T09:21:36;4.00;;;1.80;;
57463;SDS011;43309;44.418;26.122;2022-08-02T09:24:12;5.70;;;1.80;;
57463;SDS011;43309;44.418;26.122;2022-08-02T09:26:42;4.40;;;1.80;;
57463;SDS011;43309;44.418;26.122;2022-08-02T09:29:09;4.10;;;1.90;;
57463;SDS011;43309;44.418;26.122;2022-08-02T09:31:36;2.40;;;1.90;;
57463;SDS011;43309;44.418;26.122;2022-08-02T09:34:04;4.60;;;1.60;;
57463;SDS011;43309;44.418;26.122;2022-08-02T09:36:38;3.60;;;1.60;;
57463;SDS011;43309;44.418;26.122;2022-08-02T09:39:13;3.90;;;2.00;;
57463;SDS011;43309;44.418;26.122;2022-08-02T09:41:42;1.90;;;1.80;;
57463;SDS011;43309;44.418;26.122;2022-08-02T09:44:11;3.60;;;1.60;;
57463;SDS011;43309;44.418;26.122;2022-08-02T09:46:40;3.00;;;1.50;;
57463;SDS011;43309;44.418;26.122;2022-08-02T09:49:09;2.10;;;1.90;;
57463;SDS011;43309;44.418;26.122;2022-08-02T09:54:31;3.00;;;1.40;;
57463;SDS011;43309;44.418;26.122;2022-08-02T09:56:59;3.00;;;1.20;;
57463;SDS011;43309;44.418;26.122;2022-08-02T09:59:26;1.40;;;1.30;;
57463;SDS011;43309;44.418;26.122;2022-08-02T10:01:55;1.80;;;1.40;;
57463;SDS011;43309;44.418;26.122;2022-08-02T10:04:24;2.40;;;1.40;;
57463;SDS011;43309;44.418;26.122;2022-08-02T10:06:54;2.10;;;1.40;;
57463;SDS011;43309;44.418;26.122;2022-08-02T10:09:21;2.30;;;1.20;;
57463;SDS011;43309;44.418;26.122;2022-08-02T10:11:48;3.80;;;1.20;;
57463;SDS011;43309;44.418;26.122;2022-08-02T10:14:17;2.40;;;1.20;;
57463;SDS011;43309;44.418;26.122;2022-08-02T10:16:46;2.60;;;1.20;;
57463;SDS011;43309;44.418;26.122;2022-08-02T10:19:13;2.70;;;1.40;;
57463;SDS011;43309;44.418;26.122;2022-08-02T10:21:44;1.20;;;1.10;;
57463;SDS011;43309;44.418;26.122;2022-08-02T10:24:15;1.10;;;1.10;;
57463;SDS011;43309;44.418;26.122;2022-08-02T10:26:50;1.80;;;1.30;;
57463;SDS011;43309;44.418;26.122;2022-08-02T10:29:18;2.00;;;1.30;;
57463;SDS011;43309;44.418;26.122;2022-08-02T10:31:53;2.00;;;1.30;;
57463;SDS011;43309;44.418;26.122;2022-08-02T10:34:23;1.50;;;1.30;;
57463;SDS011;43309;44.418;26.122;2022-08-02T10:36:53;1.30;;;1.20;;
57463;SDS011;43309;44.418;26.122;2022-08-02T10:39:20;2.80;;;1.30;;
57463;SDS011;43309;44.418;26.122;2022-08-02T10:41:48;1.70;;;1.50;;
57463;SDS011;43309;44.418;26.122;2022-08-02T10:44:27;1.40;;;1.20;;
57463;SDS011;43309;44.418;26.122;2022-08-02T10:52:19;1.20;;;1.00;;
57463;SDS011;43309;44.418;26.122;2022-08-02T10:55:01;1.00;;;1.00;;
57463;SDS011;43309;44.418;26.122;2022-08-02T10:57:37;2.80;;;1.10;;
57463;SDS011;43309;44.418;26.122;2022-08-02T11:00:11;1.30;;;1.20;;
57463;SDS011;43309;44.418;26.122;2022-08-02T11:02:51;2.00;;;1.10;;
57463;SDS011;43309;44.418;26.122;2022-08-02T11:05:29;1.20;;;1.10;;
57463;SDS011;43309;44.418;26.122;2022-08-02T11:07:57;1.80;;;1.20;;
57463;SDS011;43309;44.418;26.122;2022-08-02T11:18:19;1.00;;;0.90;;
57463;SDS011;43309;44.418;26.122;2022-08-02T11:21:06;4.00;;;1.10;;
57463;SDS011;43309;44.418;26.122;2022-08-02T11:23:48;1.80;;;1.00;;
57463;SDS011;43309;44.418;26.122;2022-08-02T11:28:55;0.90;;;0.90;;
57463;SDS011;43309;44.418;26.122;2022-08-02T11:31:27;1.20;;;1.10;;
57463;SDS011;43309;44.418;26.122;2022-08-02T11:33:55;2.00;;;1.10;;
57463;SDS011;43309;44.418;26.122;2022-08-02T11:36:22;2.50;;;1.10;;
57463;SDS011;43309;44.418;26.122;2022-08-02T11:38:49;1.70;;;1.00;;
57463;SDS011;43309;44.418;26.122;2022-08-02T11:41:34;4.60;;;1.20;;
57463;SDS011;43309;44.418;26.122;2022-08-02T11:44:01;5.60;;;1.30;;
57463;SDS011;43309;44.418;26.122;2022-08-02T11:46:28;2.20;;;1.10;;
57463;SDS011;43309;44.418;26.122;2022-08-02T11:48:55;1.00;;;1.00;;
57463;SDS011;43309;44.418;26.122;2022-08-02T11:51:22;4.40;;;1.20;;
57463;SDS011;43309;44.418;26.122;2022-08-02T11:53:53;2.20;;;1.20;;
57463;SDS011;43309;44.418;26.122;2022-08-02T11:56:27;2.00;;;1.20;;
57463;SDS011;43309;44.418;26.122;2022-08-02T11:59:05;1.40;;;1.30;;
57463;SDS011;43309;44.418;26.122;2022-08-02T12:01:34;1.00;;;1.00;;
57463;SDS011;43309;44.418;26.122;2022-08-02T12:04:03;1.10;;;1.10;;
57463;SDS011;43309;44.418;26.122;2022-08-02T12:06:31;2.50;;;1.20;;
57463;SDS011;43309;44.418;26.122;2022-08-02T12:09:09;1.20;;;1.10;;
57463;SDS011;43309;44.418;26.122;2022-08-02T12:11:38;1.90;;;1.10;;
57463;SDS011;43309;44.418;26.122;2022-08-02T12:14:07;1.30;;;1.20;;
57463;SDS011;43309;44.418;26.122;2022-08-02T12:16:35;2.40;;;1.20;;
57463;SDS011;43309;44.418;26.122;2022-08-02T12:19:22;3.00;;;1.30;;
57463;SDS011;43309;44.418;26.122;2022-08-02T12:24:53;3.10;;;1.70;;
57463;SDS011;43309;44.418;26.122;2022-08-02T12:27:35;2.00;;;1.40;;
57463;SDS011;43309;44.418;26.122;2022-08-02T12:30:09;1.40;;;1.30;;
57463;SDS011;43309;44.418;26.122;2022-08-02T12:32:42;1.70;;;1.30;;
57463;SDS011;43309;44.418;26.122;2022-08-02T12:35:10;1.70;;;1.20;;
57463;SDS011;43309;44.418;26.122;2022-08-02T12:37:42;1.70;;;1.10;;
57463;SDS011;43309;44.418;26.122;2022-08-02T12:40:30;1.60;;;1.20;;
57463;SDS011;43309;44.418;26.122;2022-08-02T12:42:59;2.30;;;1.40;;
57463;SDS011;43309;44.418;26.122;2022-08-02T12:45:28;2.50;;;1.30;;
57463;SDS011;43309;44.418;26.122;2022-08-02T12:47:57;3.50;;;1.30;;
57463;SDS011;43309;44.418;26.122;2022-08-02T12:55:53;1.60;;;1.10;;
57463;SDS011;43309;44.418;26.122;2022-08-02T12:58:21;3.60;;;1.30;;
57463;SDS011;43309;44.418;26.122;2022-08-02T13:00:52;2.00;;;1.20;;
57463;SDS011;43309;44.418;26.122;2022-08-02T13:03:21;3.80;;;1.10;;
57463;SDS011;43309;44.418;26.122;2022-08-02T13:05:49;3.60;;;1.30;;
57463;SDS011;43309;44.418;26.122;2022-08-02T13:08:17;1.40;;;1.20;;
57463;SDS011;43309;44.418;26.122;2022-08-02T13:10:44;2.30;;;1.10;;
57463;SDS011;43309;44.418;26.122;2022-08-02T13:13:11;3.40;;;1.20;;
57463;SDS011;43309;44.418;26.122;2022-08-02T13:15:38;1.60;;;1.10;;
57463;SDS011;43309;44.418;26.122;2022-08-02T13:18:05;1.30;;;1.20;;
57463;SDS011;43309;44.418;26.122;2022-08-02T13:20:32;1.30;;;1.20;;
57463;SDS011;43309;44.418;26.122;2022-08-02T13:23:00;1.00;;;0.90;;
57463;SDS011;43309;44.418;26.122;2022-08-02T13:25:27;1.70;;;1.20;;
57463;SDS011;43309;44.418;26.122;2022-08-02T13:27:54;1.10;;;1.00;;
57463;SDS011;43309;44.418;26.122;2022-08-02T13:30:21;1.10;;;1.00;;
57463;SDS011;43309;44.418;26.122;2022-08-02T13:32:48;2.00;;;1.10;;
57463;SDS011;43309;44.418;26.122;2022-08-02T13:35:15;2.10;;;1.20;;
57463;SDS011;43309;44.418;26.122;2022-08-02T13:37:43;5.00;;;1.00;;
57463;SDS011;43309;44.418;26.122;2022-08-02T13:40:11;1.20;;;1.10;;
57463;SDS011;43309;44.418;26.122;2022-08-02T13:42:38;0.80;;;0.80;;
57463;SDS011;43309;44.418;26.122;2022-08-02T13:45:05;3.20;;;1.10;;
57463;SDS011;43309;44.418;26.122;2022-08-02T13:47:33;4.00;;;1.20;;
57463;SDS011;43309;44.418;26.122;2022-08-02T13:50:00;2.90;;;1.20;;
57463;SDS011;43309;44.418;26.122;2022-08-02T13:52:27;2.50;;;1.20;;
57463;SDS011;43309;44.418;26.122;2022-08-02T13:54:54;1.30;;;1.20;;
57463;SDS011;43309;44.418;26.122;2022-08-02T13:57:21;2.10;;;0.90;;
57463;SDS011;43309;44.418;26.122;2022-08-02T13:59:48;1.20;;;1.10;;
57463;SDS011;43309;44.418;26.122;2022-08-02T14:02:16;2.10;;;1.60;;
57463;SDS011;43309;44.418;26.122;2022-08-02T14:04:43;5.20;;;1.20;;
57463;SDS011;43309;44.418;26.122;2022-08-02T14:07:10;2.80;;;1.00;;
57463;SDS011;43309;44.418;26.122;2022-08-02T14:09:37;1.70;;;1.00;;
57463;SDS011;43309;44.418;26.122;2022-08-02T14:12:05;2.00;;;0.90;;
57463;SDS011;43309;44.418;26.122;2022-08-02T14:14:32;2.00;;;1.00;;
57463;SDS011;43309;44.418;26.122;2022-08-02T14:16:59;2.90;;;0.90;;
57463;SDS011;43309;44.418;26.122;2022-08-02T14:19:26;2.50;;;1.20;;
57463;SDS011;43309;44.418;26.122;2022-08-02T14:21:53;0.90;;;0.90;;
57463;SDS011;43309;44.418;26.122;2022-08-02T14:24:20;4.10;;;1.10;;
57463;SDS011;43309;44.418;26.122;2022-08-02T14:26:49;1.10;;;1.00;;
57463;SDS011;43309;44.418;26.122;2022-08-02T14:29:17;3.10;;;1.20;;
57463;SDS011;43309;44.418;26.122;2022-08-02T14:31:44;1.90;;;1.00;;
57463;SDS011;43309;44.418;26.122;2022-08-02T14:34:12;4.50;;;1.00;;
57463;SDS011;43309;44.418;26.122;2022-08-02T14:36:39;2.10;;;1.10;;
57463;SDS011;43309;44.418;26.122;2022-08-02T14:39:07;4.30;;;1.30;;
57463;SDS011;43309;44.418;26.122;2022-08-02T14:41:34;2.80;;;1.20;;
57463;SDS011;43309;44.418;26.122;2022-08-02T14:44:03;1.40;;;1.20;;
57463;SDS011;43309;44.418;26.122;2022-08-02T14:46:31;1.50;;;1.10;;
57463;SDS011;43309;44.418;26.122;2022-08-02T14:48:59;2.20;;;1.00;;
57463;SDS011;43309;44.418;26.122;2022-08-02T14:54:01;2.40;;;1.10;;
57463;SDS011;43309;44.418;26.122;2022-08-02T14:56:33;2.50;;;1.30;;
57463;SDS011;43309;44.418;26.122;2022-08-02T14:59:00;2.30;;;1.00;;
57463;SDS011;43309;44.418;26.122;2022-08-02T15:01:27;1.30;;;1.10;;
57463;SDS011;43309;44.418;26.122;2022-08-02T15:03:54;4.40;;;1.40;;
57463;SDS011;43309;44.418;26.122;2022-08-02T15:06:21;2.80;;;1.20;;
57463;SDS011;43309;44.418;26.122;2022-08-02T15:08:49;2.00;;;1.10;;
57463;SDS011;43309;44.418;26.122;2022-08-02T15:11:16;2.30;;;1.10;;
57463;SDS011;43309;44.418;26.122;2022-08-02T15:13:43;1.00;;;1.00;;
57463;SDS011;43309;44.418;26.122;2022-08-02T15:16:10;1.20;;;1.10;;
57463;SDS011;43309;44.418;26.122;2022-08-02T15:18:37;2.20;;;1.10;;
57463;SDS011;43309;44.418;26.122;2022-08-02T15:21:04;1.70;;;1.40;;
57463;SDS011;43309;44.418;26.122;2022-08-02T15:23:32;1.30;;;1.30;;
57463;SDS011;43309;44.418;26.122;2022-08-02T15:25:59;1.10;;;1.10;;
57463;SDS011;43309;44.418;26.122;2022-08-02T15:28:26;1.00;;;1.00;;
57463;SDS011;43309;44.418;26.122;2022-08-02T15:30:55;2.30;;;1.20;;
57463;SDS011;43309;44.418;26.122;2022-08-02T15:33:23;1.00;;;1.00;;